sensor_id;sensor_type;location;lat;lon;timestamp;temperature;humidity
13589;DHT22;6865;52.552;13.434;2023-07-02T00:02:15;17.20;99.90
13589;DHT22;6865;52.552;13.434;2023-07-02T00:04:46;17.20;99.90
13589;DHT22;6865;52.552;13.434;2023-07-02T00:07:13;17.20;99.90
13589;DHT22;6865;52.552;13.434;2023-07-02T00:09:41;17.20;99.90
13589;DHT22;6865;52.552;13.434;2023-07-02T00:12:08;16.30;99.90
13589;DHT22;6865;52.552;13.434;2023-07-02T00:14:35;17.30;99.90
13589;DHT22;6865;52.552;13.434;2023-07-02T00:17:01;17.30;99.90
13589;DHT22;6865;52.552;13.434;2023-07-02T00:19:28;17.30;99.90
13589;DHT22;6865;52.552;13.434;2023-07-02T00:21:55;18.90;99.90
13589;DHT22;6865;52.552;13.434;2023-07-02T00:24:22;17.20;99.90
13589;DHT22;6865;52.552;13.434;2023-07-02T00:26:48;17.30;99.90
13589;DHT22;6865;52.552;13.434;2023-07-02T00:29:15;17.30;99.90
13589;DHT22;6865;52.552;13.434;2023-07-02T00:31:42;17.40;99.90
13589;DHT22;6865;52.552;13.434;2023-07-02T00:34:09;17.30;99.90
13589;DHT22;6865;52.552;13.434;2023-07-02T00:36:35;17.20;99.90
13589;DHT22;6865;52.552;13.434;2023-07-02T00:39:02;17.20;99.90
13589;DHT22;6865;52.552;13.434;2023-07-02T00:41:28;17.20;99.90
13589;DHT22;6865;52.552;13.434;2023-07-02T00:43:55;17.20;99.90
13589;DHT22;6865;52.552;13.434;2023-07-02T00:46:23;17.20;99.90
13589;DHT22;6865;52.552;13.434;2023-07-02T00:48:53;17.20;99.90
13589;DHT22;6865;52.552;13.434;2023-07-02T00:51:22;17.20;99.90
13589;DHT22;6865;52.552;13.434;2023-07-02T00:53:51;17.20;99.90
13589;DHT22;6865;52.552;13.434;2023-07-02T00:56:18;17.20;99.90
13589;DHT22;6865;52.552;13.434;2023-07-02T00:58:46;17.20;99.90
13589;DHT22;6865;52.552;13.434;2023-07-02T01:01:21;17.20;99.90
13589;DHT22;6865;52.552;13.434;2023-07-02T01:03:57;17.20;99.90
13589;DHT22;6865;52.552;13.434;2023-07-02T01:06:30;17.30;99.90
13589;DHT22;6865;52.552;13.434;2023-07-02T01:09:00;17.30;99.90
13589;DHT22;6865;52.552;13.434;2023-07-02T01:11:31;17.20;99.90
13589;DHT22;6865;52.552;13.434;2023-07-02T01:14:05;17.20;99.90
13589;DHT22;6865;52.552;13.434;2023-07-02T01:16:36;17.00;99.90
13589;DHT22;6865;52.552;13.434;2023-07-02T01:19:05;17.30;99.90
13589;DHT22;6865;52.552;13.434;2023-07-02T01:21:34;17.20;99.90
13589;DHT22;6865;52.552;13.434;2023-07-02T01:24:01;17.20;99.90
13589;DHT22;6865;52.552;13.434;2023-07-02T01:26:31;17.20;99.90
13589;DHT22;6865;52.552;13.434;2023-07-02T01:29:17;17.10;99.90
13589;DHT22;6865;52.552;13.434;2023-07-02T01:31:45;17.20;99.90
13589;DHT22;6865;52.552;13.434;2023-07-02T01:34:13;17.20;99.90
13589;DHT22;6865;52.552;13.434;2023-07-02T01:36:40;17.30;99.90
13589;DHT22;6865;52.552;13.434;2023-07-02T01:39:07;17.20;99.90
13589;DHT22;6865;52.552;13.434;2023-07-02T01:41:48;17.10;99.90
13589;DHT22;6865;52.552;13.434;2023-07-02T01:44:15;17.10;99.90
13589;DHT22;6865;52.552;13.434;2023-07-02T01:46:43;17.10;99.90
13589;DHT22;6865;52.552;13.434;2023-07-02T01:49:09;17.10;99.90
13589;DHT22;6865;52.552;13.434;2023-07-02T01:51:36;17.00;99.90
13589;DHT22;6865;52.552;13.434;2023-07-02T01:54:04;17.00;99.90
13589;DHT22;6865;52.552;13.434;2023-07-02T01:56:31;17.00;99.90
13589;DHT22;6865;52.552;13.434;2023-07-02T01:58:58;17.00;99.90
13589;DHT22;6865;52.552;13.434;2023-07-02T02:01:25;17.10;99.90
13589;DHT22;6865;52.552;13.434;2023-07-02T02:03:52;17.10;99.90
13589;DHT22;6865;52.552;13.434;2023-07-02T02:06:18;17.10;99.90
13589;DHT22;6865;52.552;13.434;2023-07-02T02:08:45;17.10;99.90
13589;DHT22;6865;52.552;13.434;2023-07-02T02:11:12;17.10;99.90
13589;DHT22;6865;52.552;13.434;2023-07-02T02:13:38;17.00;99.90
13589;DHT22;6865;52.552;13.434;2023-07-02T02:16:05;17.00;99.90
13589;DHT22;6865;52.552;13.434;2023-07-02T02:18:32;17.00;99.90
13589;DHT22;6865;52.552;13.434;2023-07-02T02:20:59;17.00;99.90
13589;DHT22;6865;52.552;13.434;2023-07-02T02:23:25;16.90;99.90
13589;DHT22;6865;52.552;13.434;2023-07-02T02:25:52;16.90;99.90
13589;DHT22;6865;52.552;13.434;2023-07-02T02:28:19;16.90;99.90
13589;DHT22;6865;52.552;13.434;2023-07-02T02:30:45;16.90;99.90
13589;DHT22;6865;52.552;13.434;2023-07-02T02:33:13;16.90;99.90
13589;DHT22;6865;52.552;13.434;2023-07-02T02:35:39;16.90;99.90
13589;DHT22;6865;52.552;13.434;2023-07-02T02:38:06;16.90;99.90
13589;DHT22;6865;52.552;13.434;2023-07-02T02:40:32;16.80;99.90
13589;DHT22;6865;52.552;13.434;2023-07-02T02:42:59;16.80;99.90
13589;DHT22;6865;52.552;13.434;2023-07-02T02:45:26;16.80;99.90
13589;DHT22;6865;52.552;13.434;2023-07-02T02:47:53;16.80;99.90
13589;DHT22;6865;52.552;13.434;2023-07-02T02:50:19;16.90;99.90
13589;DHT22;6865;52.552;13.434;2023-07-02T02:52:46;16.80;99.90
13589;DHT22;6865;52.552;13.434;2023-07-02T02:55:13;16.80;99.90
13589;DHT22;6865;52.552;13.434;2023-07-02T02:57:39;16.80;99.90
13589;DHT22;6865;52.552;13.434;2023-07-02T03:00:06;16.70;99.90
13589;DHT22;6865;52.552;13.434;2023-07-02T03:02:33;16.70;99.90
13589;DHT22;6865;52.552;13.434;2023-07-02T03:05:00;16.70;99.90
13589;DHT22;6865;52.552;13.434;2023-07-02T03:07:29;16.70;99.90
13589;DHT22;6865;52.552;13.434;2023-07-02T03:09:56;16.70;99.90
13589;DHT22;6865;52.552;13.434;2023-07-02T03:12:23;16.60;99.90
13589;DHT22;6865;52.552;13.434;2023-07-02T03:14:52;16.60;99.90
13589;DHT22;6865;52.552;13.434;2023-07-02T03:17:21;16.60;99.90
13589;DHT22;6865;52.552;13.434;2023-07-02T03:19:48;16.60;99.90
13589;DHT22;6865;52.552;13.434;2023-07-02T03:22:14;16.60;99.90
13589;DHT22;6865;52.552;13.434;2023-07-02T03:24:41;16.60;99.90
13589;DHT22;6865;52.552;13.434;2023-07-02T03:27:08;16.60;99.90
13589;DHT22;6865;52.552;13.434;2023-07-02T03:29:35;16.70;99.90
13589;DHT22;6865;52.552;13.434;2023-07-02T03:32:02;16.60;99.90
13589;DHT22;6865;52.552;13.434;2023-07-02T03:34:28;16.60;99.90
13589;DHT22;6865;52.552;13.434;2023-07-02T03:36:55;16.60;99.90
13589;DHT22;6865;52.552;13.434;2023-07-02T03:39:22;16.60;99.90
13589;DHT22;6865;52.552;13.434;2023-07-02T03:41:49;16.60;99.90
13589;DHT22;6865;52.552;13.434;2023-07-02T03:44:15;16.50;99.90
13589;DHT22;6865;52.552;13.434;2023-07-02T03:46:43;16.50;99.90
13589;DHT22;6865;52.552;13.434;2023-07-02T03:49:10;16.50;99.90
13589;DHT22;6865;52.552;13.434;2023-07-02T03:51:36;16.50;99.90
13589;DHT22;6865;52.552;13.434;2023-07-02T03:54:03;16.60;99.90
13589;DHT22;6865;52.552;13.434;2023-07-02T03:56:30;16.50;99.90
13589;DHT22;6865;52.552;13.434;2023-07-02T03:58:56;16.50;99.90
13589;DHT22;6865;52.552;13.434;2023-07-02T04:01:23;16.50;99.90
13589;DHT22;6865;52.552;13.434;2023-07-02T04:03:51;16.50;99.90
13589;DHT22;6865;52.552;13.434;2023-07-02T04:06:18;16.50;99.90
13589;DHT22;6865;52.552;13.434;2023-07-02T04:08:45;16.50;99.90
13589;DHT22;6865;52.552;13.434;2023-07-02T04:11:12;16.50;99.90
13589;DHT22;6865;52.552;13.434;2023-07-02T04:13:39;16.50;99.90
13589;DHT22;6865;52.552;13.434;2023-07-02T04:16:06;16.50;99.90
13589;DHT22;6865;52.552;13.434;2023-07-02T04:18:33;16.50;99.90
13589;DHT22;6865;52.552;13.434;2023-07-02T04:21:01;16.60;99.90
13589;DHT22;6865;52.552;13.434;2023-07-02T04:23:28;16.70;99.90
13589;DHT22;6865;52.552;13.434;2023-07-02T04:25:55;16.80;99.90
13589;DHT22;6865;52.552;13.434;2023-07-02T04:28:42;16.80;99.90
13589;DHT22;6865;52.552;13.434;2023-07-02T04:31:08;16.80;99.90
13589;DHT22;6865;52.552;13.434;2023-07-02T04:33:35;16.70;99.90
13589;DHT22;6865;52.552;13.434;2023-07-02T04:36:03;16.80;99.90
13589;DHT22;6865;52.552;13.434;2023-07-02T04:38:30;16.70;99.90
13589;DHT22;6865;52.552;13.434;2023-07-02T04:40:56;16.70;99.90
13589;DHT22;6865;52.552;13.434;2023-07-02T04:43:32;16.80;99.90
13589;DHT22;6865;52.552;13.434;2023-07-02T04:46:00;16.80;99.90
13589;DHT22;6865;52.552;13.434;2023-07-02T04:48:27;16.90;99.90
13589;DHT22;6865;52.552;13.434;2023-07-02T04:50:54;17.00;99.90
13589;DHT22;6865;52.552;13.434;2023-07-02T04:53:21;17.30;99.90
13589;DHT22;6865;52.552;13.434;2023-07-02T04:55:47;17.30;99.90
13589;DHT22;6865;52.552;13.434;2023-07-02T04:58:15;17.20;99.90
13589;DHT22;6865;52.552;13.434;2023-07-02T05:00:41;17.10;99.90
13589;DHT22;6865;52.552;13.434;2023-07-02T05:03:08;17.00;99.90
13589;DHT22;6865;52.552;13.434;2023-07-02T05:05:35;17.00;99.90
13589;DHT22;6865;52.552;13.434;2023-07-02T05:08:01;17.00;99.90
13589;DHT22;6865;52.552;13.434;2023-07-02T05:10:31;17.00;99.90
13589;DHT22;6865;52.552;13.434;2023-07-02T05:12:58;17.10;99.90
13589;DHT22;6865;52.552;13.434;2023-07-02T05:15:24;17.20;99.90
13589;DHT22;6865;52.552;13.434;2023-07-02T05:17:51;17.20;99.90
13589;DHT22;6865;52.552;13.434;2023-07-02T05:20:18;16.70;99.90
13589;DHT22;6865;52.552;13.434;2023-07-02T05:22:44;17.40;99.90
13589;DHT22;6865;52.552;13.434;2023-07-02T05:25:11;17.50;99.90
13589;DHT22;6865;52.552;13.434;2023-07-02T05:27:38;17.40;99.90
13589;DHT22;6865;52.552;13.434;2023-07-02T05:30:05;17.40;99.90
13589;DHT22;6865;52.552;13.434;2023-07-02T05:32:34;17.50;99.90
13589;DHT22;6865;52.552;13.434;2023-07-02T05:35:01;17.50;99.90
13589;DHT22;6865;52.552;13.434;2023-07-02T05:37:27;17.50;99.90
13589;DHT22;6865;52.552;13.434;2023-07-02T05:39:54;17.60;99.90
13589;DHT22;6865;52.552;13.434;2023-07-02T05:42:20;17.70;99.90
13589;DHT22;6865;52.552;13.434;2023-07-02T05:44:47;17.80;99.90
13589;DHT22;6865;52.552;13.434;2023-07-02T05:47:14;17.80;99.90
13589;DHT22;6865;52.552;13.434;2023-07-02T05:49:43;17.90;99.90
13589;DHT22;6865;52.552;13.434;2023-07-02T05:52:10;17.80;99.90
13589;DHT22;6865;52.552;13.434;2023-07-02T05:54:40;17.70;99.90
13589;DHT22;6865;52.552;13.434;2023-07-02T05:57:07;17.90;99.90
13589;DHT22;6865;52.552;13.434;2023-07-02T05:59:34;17.90;99.90
13589;DHT22;6865;52.552;13.434;2023-07-02T06:02:01;18.00;99.90
13589;DHT22;6865;52.552;13.434;2023-07-02T06:04:27;18.10;99.90
13589;DHT22;6865;52.552;13.434;2023-07-02T06:06:54;18.20;99.90
13589;DHT22;6865;52.552;13.434;2023-07-02T06:09:21;18.30;99.90
13589;DHT22;6865;52.552;13.434;2023-07-02T06:11:48;18.40;99.90
13589;DHT22;6865;52.552;13.434;2023-07-02T06:14:14;18.70;99.90
13589;DHT22;6865;52.552;13.434;2023-07-02T06:16:41;19.00;99.90
13589;DHT22;6865;52.552;13.434;2023-07-02T06:19:08;19.20;99.90
13589;DHT22;6865;52.552;13.434;2023-07-02T06:21:36;19.20;99.90
13589;DHT22;6865;52.552;13.434;2023-07-02T06:24:03;19.00;99.90
13589;DHT22;6865;52.552;13.434;2023-07-02T06:26:30;18.90;99.90
13589;DHT22;6865;52.552;13.434;2023-07-02T06:28:59;18.90;99.90
13589;DHT22;6865;52.552;13.434;2023-07-02T06:31:25;18.80;99.90
13589;DHT22;6865;52.552;13.434;2023-07-02T06:33:52;18.80;99.90
13589;DHT22;6865;52.552;13.434;2023-07-02T06:36:19;18.60;99.90
13589;DHT22;6865;52.552;13.434;2023-07-02T06:38:46;18.70;99.90
13589;DHT22;6865;52.552;13.434;2023-07-02T06:41:13;18.60;99.90
13589;DHT22;6865;52.552;13.434;2023-07-02T06:43:42;18.60;99.90
13589;DHT22;6865;52.552;13.434;2023-07-02T06:46:12;18.60;99.90
13589;DHT22;6865;52.552;13.434;2023-07-02T06:48:39;18.80;99.90
13589;DHT22;6865;52.552;13.434;2023-07-02T06:51:06;19.20;99.90
13589;DHT22;6865;52.552;13.434;2023-07-02T06:53:35;19.00;99.90
13589;DHT22;6865;52.552;13.434;2023-07-02T06:56:02;19.20;99.90
13589;DHT22;6865;52.552;13.434;2023-07-02T06:58:30;19.10;99.90
13589;DHT22;6865;52.552;13.434;2023-07-02T07:00:56;19.40;99.90
13589;DHT22;6865;52.552;13.434;2023-07-02T07:03:23;19.80;99.90
13589;DHT22;6865;52.552;13.434;2023-07-02T07:05:50;19.90;99.90
13589;DHT22;6865;52.552;13.434;2023-07-02T07:08:17;20.10;99.90
13589;DHT22;6865;52.552;13.434;2023-07-02T07:10:44;20.00;99.90
13589;DHT22;6865;52.552;13.434;2023-07-02T07:13:12;19.90;99.90
13589;DHT22;6865;52.552;13.434;2023-07-02T07:15:39;19.90;99.90
13589;DHT22;6865;52.552;13.434;2023-07-02T07:18:08;19.80;99.90
13589;DHT22;6865;52.552;13.434;2023-07-02T07:20:35;19.90;99.90
13589;DHT22;6865;52.552;13.434;2023-07-02T07:23:03;19.60;99.90
13589;DHT22;6865;52.552;13.434;2023-07-02T07:25:29;19.50;99.90
13589;DHT22;6865;52.552;13.434;2023-07-02T07:27:58;19.60;99.90
13589;DHT22;6865;52.552;13.434;2023-07-02T07:30:25;19.90;99.90
13589;DHT22;6865;52.552;13.434;2023-07-02T07:32:52;19.80;99.90
13589;DHT22;6865;52.552;13.434;2023-07-02T07:35:22;19.80;99.90
13589;DHT22;6865;52.552;13.434;2023-07-02T07:37:49;19.80;99.90
13589;DHT22;6865;52.552;13.434;2023-07-02T07:40:16;20.00;99.90
13589;DHT22;6865;52.552;13.434;2023-07-02T07:42:42;20.00;99.90
13589;DHT22;6865;52.552;13.434;2023-07-02T07:45:10;20.00;99.90
13589;DHT22;6865;52.552;13.434;2023-07-02T07:47:38;19.90;99.90
13589;DHT22;6865;52.552;13.434;2023-07-02T07:50:05;20.00;99.90
13589;DHT22;6865;52.552;13.434;2023-07-02T07:52:38;19.90;99.90
13589;DHT22;6865;52.552;13.434;2023-07-02T07:55:06;19.70;99.90
13589;DHT22;6865;52.552;13.434;2023-07-02T07:57:35;19.50;99.90
13589;DHT22;6865;52.552;13.434;2023-07-02T08:00:03;19.20;99.90
13589;DHT22;6865;52.552;13.434;2023-07-02T08:02:38;19.00;99.90
13589;DHT22;6865;52.552;13.434;2023-07-02T08:05:06;19.00;99.90
13589;DHT22;6865;52.552;13.434;2023-07-02T08:07:33;18.90;99.90
13589;DHT22;6865;52.552;13.434;2023-07-02T08:10:00;18.90;99.90
13589;DHT22;6865;52.552;13.434;2023-07-02T08:12:29;18.90;99.90
13589;DHT22;6865;52.552;13.434;2023-07-02T08:14:58;19.00;99.90
13589;DHT22;6865;52.552;13.434;2023-07-02T08:17:25;19.10;99.90
13589;DHT22;6865;52.552;13.434;2023-07-02T08:19:51;19.00;99.90
13589;DHT22;6865;52.552;13.434;2023-07-02T08:22:18;19.00;99.90
13589;DHT22;6865;52.552;13.434;2023-07-02T08:24:45;18.80;99.90
13589;DHT22;6865;52.552;13.434;2023-07-02T08:27:11;18.80;99.90
13589;DHT22;6865;52.552;13.434;2023-07-02T08:29:40;18.80;99.90
13589;DHT22;6865;52.552;13.434;2023-07-02T08:32:07;18.80;99.90
13589;DHT22;6865;52.552;13.434;2023-07-02T08:34:34;18.80;99.90
13589;DHT22;6865;52.552;13.434;2023-07-02T08:37:00;18.70;99.90
13589;DHT22;6865;52.552;13.434;2023-07-02T08:39:27;18.70;99.90
13589;DHT22;6865;52.552;13.434;2023-07-02T08:41:54;18.80;99.90
13589;DHT22;6865;52.552;13.434;2023-07-02T08:44:21;19.00;99.90
13589;DHT22;6865;52.552;13.434;2023-07-02T08:46:49;19.10;99.90
13589;DHT22;6865;52.552;13.434;2023-07-02T08:49:17;19.00;99.90
13589;DHT22;6865;52.552;13.434;2023-07-02T08:51:45;19.20;99.90
13589;DHT22;6865;52.552;13.434;2023-07-02T08:54:13;19.00;99.90
13589;DHT22;6865;52.552;13.434;2023-07-02T08:56:41;19.10;99.90
13589;DHT22;6865;52.552;13.434;2023-07-02T08:59:08;19.10;99.90
13589;DHT22;6865;52.552;13.434;2023-07-02T09:01:50;19.20;99.90
13589;DHT22;6865;52.552;13.434;2023-07-02T09:04:22;19.40;99.90
13589;DHT22;6865;52.552;13.434;2023-07-02T09:07:08;19.30;99.90
13589;DHT22;6865;52.552;13.434;2023-07-02T09:09:45;19.40;99.90
13589;DHT22;6865;52.552;13.434;2023-07-02T09:15:00;19.50;99.90
13589;DHT22;6865;52.552;13.434;2023-07-02T09:17:34;19.60;99.90
13589;DHT22;6865;52.552;13.434;2023-07-02T09:20:04;19.70;99.90
13589;DHT22;6865;52.552;13.434;2023-07-02T09:22:34;19.70;99.90
13589;DHT22;6865;52.552;13.434;2023-07-02T09:25:01;19.80;99.90
13589;DHT22;6865;52.552;13.434;2023-07-02T09:27:41;19.90;99.90
13589;DHT22;6865;52.552;13.434;2023-07-02T09:30:14;19.80;99.90
13589;DHT22;6865;52.552;13.434;2023-07-02T09:32:45;19.80;99.90
13589;DHT22;6865;52.552;13.434;2023-07-02T09:35:13;20.00;99.90
13589;DHT22;6865;52.552;13.434;2023-07-02T09:37:43;20.10;99.60
13589;DHT22;6865;52.552;13.434;2023-07-02T09:40:11;20.00;99.60
13589;DHT22;6865;52.552;13.434;2023-07-02T09:42:39;19.90;99.50
13589;DHT22;6865;52.552;13.434;2023-07-02T09:45:08;20.10;99.90
13589;DHT22;6865;52.552;13.434;2023-07-02T09:47:40;20.30;99.50
13589;DHT22;6865;52.552;13.434;2023-07-02T09:50:08;20.50;99.00
13589;DHT22;6865;52.552;13.434;2023-07-02T09:52:36;20.50;98.80
13589;DHT22;6865;52.552;13.434;2023-07-02T09:55:03;20.20;98.50
13589;DHT22;6865;52.552;13.434;2023-07-02T09:57:31;20.70;98.50
13589;DHT22;6865;52.552;13.434;2023-07-02T10:00:02;20.80;97.80
13589;DHT22;6865;52.552;13.434;2023-07-02T10:02:29;20.80;96.60
13589;DHT22;6865;52.552;13.434;2023-07-02T10:04:55;20.60;96.30
13589;DHT22;6865;52.552;13.434;2023-07-02T10:07:31;20.60;96.20
13589;DHT22;6865;52.552;13.434;2023-07-02T10:09:59;20.50;96.60
13589;DHT22;6865;52.552;13.434;2023-07-02T10:12:28;20.50;96.80
13589;DHT22;6865;52.552;13.434;2023-07-02T10:14:57;20.60;97.10
13589;DHT22;6865;52.552;13.434;2023-07-02T10:17:31;20.70;97.00
13589;DHT22;6865;52.552;13.434;2023-07-02T10:20:04;20.90;96.40
13589;DHT22;6865;52.552;13.434;2023-07-02T10:22:49;21.00;96.10
13589;DHT22;6865;52.552;13.434;2023-07-02T10:27:52;21.10;95.80
13589;DHT22;6865;52.552;13.434;2023-07-02T10:30:31;21.30;95.80
13589;DHT22;6865;52.552;13.434;2023-07-02T10:33:27;21.20;95.50
13589;DHT22;6865;52.552;13.434;2023-07-02T10:35:54;21.30;95.60
13589;DHT22;6865;52.552;13.434;2023-07-02T10:38:23;21.40;95.60
13589;DHT22;6865;52.552;13.434;2023-07-02T10:40:57;21.30;95.40
13589;DHT22;6865;52.552;13.434;2023-07-02T10:43:29;21.30;95.70
13589;DHT22;6865;52.552;13.434;2023-07-02T10:45:58;21.20;95.60
13589;DHT22;6865;52.552;13.434;2023-07-02T10:48:27;21.40;95.40
13589;DHT22;6865;52.552;13.434;2023-07-02T10:50:53;21.40;95.00
13589;DHT22;6865;52.552;13.434;2023-07-02T10:53:20;21.50;94.90
13589;DHT22;6865;52.552;13.434;2023-07-02T10:55:54;21.60;95.10
13589;DHT22;6865;52.552;13.434;2023-07-02T10:58:23;21.50;94.60
13589;DHT22;6865;52.552;13.434;2023-07-02T11:00:51;21.40;94.20
13589;DHT22;6865;52.552;13.434;2023-07-02T11:03:22;21.40;94.50
13589;DHT22;6865;52.552;13.434;2023-07-02T11:05:50;21.50;94.70
13589;DHT22;6865;52.552;13.434;2023-07-02T11:08:18;21.60;94.10
13589;DHT22;6865;52.552;13.434;2023-07-02T11:10:47;21.60;94.50
13589;DHT22;6865;52.552;13.434;2023-07-02T11:13:19;21.60;94.20
13589;DHT22;6865;52.552;13.434;2023-07-02T11:15:46;21.40;93.90
13589;DHT22;6865;52.552;13.434;2023-07-02T11:18:16;21.10;93.90
13589;DHT22;6865;52.552;13.434;2023-07-02T11:20:45;21.20;94.10
13589;DHT22;6865;52.552;13.434;2023-07-02T11:23:25;21.30;94.40
13589;DHT22;6865;52.552;13.434;2023-07-02T11:26:00;21.20;94.20
13589;DHT22;6865;52.552;13.434;2023-07-02T11:28:28;21.20;94.40
13589;DHT22;6865;52.552;13.434;2023-07-02T11:30:56;21.30;93.40
13589;DHT22;6865;52.552;13.434;2023-07-02T11:33:39;21.30;93.10
13589;DHT22;6865;52.552;13.434;2023-07-02T11:36:07;21.50;93.20
13589;DHT22;6865;52.552;13.434;2023-07-02T11:38:36;21.60;92.60
13589;DHT22;6865;52.552;13.434;2023-07-02T11:41:03;21.60;89.90
13589;DHT22;6865;52.552;13.434;2023-07-02T11:43:30;21.60;87.60
13589;DHT22;6865;52.552;13.434;2023-07-02T11:45:57;21.50;86.00
13589;DHT22;6865;52.552;13.434;2023-07-02T11:48:23;21.50;85.10
13589;DHT22;6865;52.552;13.434;2023-07-02T11:50:50;21.80;85.80
13589;DHT22;6865;52.552;13.434;2023-07-02T11:53:17;21.80;84.80
13589;DHT22;6865;52.552;13.434;2023-07-02T11:55:43;21.70;84.30
13589;DHT22;6865;52.552;13.434;2023-07-02T11:58:10;21.90;84.90
13589;DHT22;6865;52.552;13.434;2023-07-02T12:00:37;22.00;84.70
13589;DHT22;6865;52.552;13.434;2023-07-02T12:03:03;22.00;82.00
13589;DHT22;6865;52.552;13.434;2023-07-02T12:05:30;22.20;81.10
13589;DHT22;6865;52.552;13.434;2023-07-02T12:07:58;22.10;77.60
13589;DHT22;6865;52.552;13.434;2023-07-02T12:10:25;22.00;77.20
13589;DHT22;6865;52.552;13.434;2023-07-02T12:12:51;22.10;77.00
13589;DHT22;6865;52.552;13.434;2023-07-02T12:15:18;22.10;75.40
13589;DHT22;6865;52.552;13.434;2023-07-02T12:17:45;22.20;76.00
13589;DHT22;6865;52.552;13.434;2023-07-02T12:20:11;22.20;76.80
13589;DHT22;6865;52.552;13.434;2023-07-02T12:22:38;22.50;76.50
13589;DHT22;6865;52.552;13.434;2023-07-02T12:25:05;22.30;76.70
13589;DHT22;6865;52.552;13.434;2023-07-02T12:27:32;22.40;74.10
13589;DHT22;6865;52.552;13.434;2023-07-02T12:29:58;22.30;73.70
13589;DHT22;6865;52.552;13.434;2023-07-02T12:32:25;22.50;73.70
13589;DHT22;6865;52.552;13.434;2023-07-02T12:34:52;22.60;73.40
13589;DHT22;6865;52.552;13.434;2023-07-02T12:37:18;22.70;73.10
13589;DHT22;6865;52.552;13.434;2023-07-02T12:39:47;22.60;72.70
13589;DHT22;6865;52.552;13.434;2023-07-02T12:42:13;22.40;73.40
13589;DHT22;6865;52.552;13.434;2023-07-02T12:44:40;22.70;73.40
13589;DHT22;6865;52.552;13.434;2023-07-02T12:47:07;22.50;72.40
13589;DHT22;6865;52.552;13.434;2023-07-02T12:49:35;22.60;72.30
13589;DHT22;6865;52.552;13.434;2023-07-02T12:52:02;22.60;70.40
13589;DHT22;6865;52.552;13.434;2023-07-02T12:54:29;22.80;67.80
13589;DHT22;6865;52.552;13.434;2023-07-02T12:56:56;22.70;66.50
13589;DHT22;6865;52.552;13.434;2023-07-02T12:59:22;22.40;66.80
13589;DHT22;6865;52.552;13.434;2023-07-02T13:01:49;22.50;68.20
13589;DHT22;6865;52.552;13.434;2023-07-02T13:04:16;22.30;68.90
13589;DHT22;6865;52.552;13.434;2023-07-02T13:06:42;22.10;70.00
13589;DHT22;6865;52.552;13.434;2023-07-02T13:09:12;22.10;71.00
13589;DHT22;6865;52.552;13.434;2023-07-02T13:11:39;22.10;72.20
13589;DHT22;6865;52.552;13.434;2023-07-02T13:14:05;22.30;72.50
13589;DHT22;6865;52.552;13.434;2023-07-02T13:16:32;22.50;72.10
13589;DHT22;6865;52.552;13.434;2023-07-02T13:18:59;22.60;72.20
13589;DHT22;6865;52.552;13.434;2023-07-02T13:21:28;22.80;70.80
13589;DHT22;6865;52.552;13.434;2023-07-02T13:23:55;22.70;69.30
13589;DHT22;6865;52.552;13.434;2023-07-02T13:26:22;22.50;68.70
13589;DHT22;6865;52.552;13.434;2023-07-02T13:28:48;22.50;69.20
13589;DHT22;6865;52.552;13.434;2023-07-02T13:31:15;22.50;66.30
13589;DHT22;6865;52.552;13.434;2023-07-02T13:33:42;22.50;66.80
13589;DHT22;6865;52.552;13.434;2023-07-02T13:36:09;22.60;67.00
13589;DHT22;6865;52.552;13.434;2023-07-02T13:38:36;22.50;66.60
13589;DHT22;6865;52.552;13.434;2023-07-02T13:41:03;22.40;65.90
13589;DHT22;6865;52.552;13.434;2023-07-02T13:43:29;22.40;66.00
13589;DHT22;6865;52.552;13.434;2023-07-02T13:45:56;22.50;65.60
13589;DHT22;6865;52.552;13.434;2023-07-02T13:48:23;22.60;64.90
13589;DHT22;6865;52.552;13.434;2023-07-02T13:50:52;22.70;65.70
13589;DHT22;6865;52.552;13.434;2023-07-02T13:53:19;22.60;66.10
13589;DHT22;6865;52.552;13.434;2023-07-02T13:55:46;22.50;65.90
13589;DHT22;6865;52.552;13.434;2023-07-02T13:58:13;22.40;66.70
13589;DHT22;6865;52.552;13.434;2023-07-02T14:00:47;22.50;66.80
13589;DHT22;6865;52.552;13.434;2023-07-02T14:03:14;22.50;66.20
13589;DHT22;6865;52.552;13.434;2023-07-02T14:05:41;22.30;66.20
13589;DHT22;6865;52.552;13.434;2023-07-02T14:08:09;22.30;66.60
13589;DHT22;6865;52.552;13.434;2023-07-02T14:10:36;22.40;66.10
13589;DHT22;6865;52.552;13.434;2023-07-02T14:13:02;22.40;65.60
13589;DHT22;6865;52.552;13.434;2023-07-02T14:15:29;22.30;65.70
13589;DHT22;6865;52.552;13.434;2023-07-02T14:17:56;22.30;65.90
13589;DHT22;6865;52.552;13.434;2023-07-02T14:20:23;22.50;66.50
13589;DHT22;6865;52.552;13.434;2023-07-02T14:22:49;22.60;66.80
13589;DHT22;6865;52.552;13.434;2023-07-02T14:25:16;22.60;66.20
13589;DHT22;6865;52.552;13.434;2023-07-02T14:27:57;22.60;65.70
13589;DHT22;6865;52.552;13.434;2023-07-02T14:30:24;22.70;66.20
13589;DHT22;6865;52.552;13.434;2023-07-02T14:32:51;22.80;66.80
13589;DHT22;6865;52.552;13.434;2023-07-02T14:35:17;22.90;63.60
13589;DHT22;6865;52.552;13.434;2023-07-02T14:37:48;22.90;61.00
13589;DHT22;6865;52.552;13.434;2023-07-02T14:40:17;22.90;62.00
13589;DHT22;6865;52.552;13.434;2023-07-02T14:42:44;22.80;60.50
13589;DHT22;6865;52.552;13.434;2023-07-02T14:45:11;22.80;61.80
13589;DHT22;6865;52.552;13.434;2023-07-02T14:47:38;22.80;62.10
13589;DHT22;6865;52.552;13.434;2023-07-02T14:50:05;22.70;62.10
13589;DHT22;6865;52.552;13.434;2023-07-02T14:52:32;22.60;62.80
13589;DHT22;6865;52.552;13.434;2023-07-02T14:54:59;22.80;62.60
13589;DHT22;6865;52.552;13.434;2023-07-02T14:57:27;22.80;62.00
13589;DHT22;6865;52.552;13.434;2023-07-02T14:59:54;22.90;62.00
13589;DHT22;6865;52.552;13.434;2023-07-02T15:02:21;22.80;61.90
13589;DHT22;6865;52.552;13.434;2023-07-02T15:04:48;22.60;62.80
13589;DHT22;6865;52.552;13.434;2023-07-02T15:07:15;22.60;62.80
13589;DHT22;6865;52.552;13.434;2023-07-02T15:09:41;22.60;62.30
13589;DHT22;6865;52.552;13.434;2023-07-02T15:12:08;22.40;62.20
13589;DHT22;6865;52.552;13.434;2023-07-02T15:14:34;22.30;62.80
13589;DHT22;6865;52.552;13.434;2023-07-02T15:17:01;22.30;62.10
13589;DHT22;6865;52.552;13.434;2023-07-02T15:19:28;22.10;62.50
13589;DHT22;6865;52.552;13.434;2023-07-02T15:21:54;22.10;62.90
13589;DHT22;6865;52.552;13.434;2023-07-02T15:24:21;22.30;62.90
13589;DHT22;6865;52.552;13.434;2023-07-02T15:26:48;22.30;63.00
13589;DHT22;6865;52.552;13.434;2023-07-02T15:29:14;22.30;62.10
13589;DHT22;6865;52.552;13.434;2023-07-02T15:31:41;22.20;63.10
13589;DHT22;6865;52.552;13.434;2023-07-02T15:34:12;22.20;63.70
13589;DHT22;6865;52.552;13.434;2023-07-02T15:36:45;22.20;63.80
13589;DHT22;6865;52.552;13.434;2023-07-02T15:39:12;22.20;64.60
13589;DHT22;6865;52.552;13.434;2023-07-02T15:41:39;22.30;65.30